createdAt,value
2017-09-30T00:02:00.150Z,96.88
2017-09-30T00:04:27.677Z,97.05
2017-09-30T00:06:55.198Z,97.02
2017-09-30T00:09:22.700Z,95.80
2017-09-30T00:11:50.223Z,96.15
2017-09-30T00:14:17.731Z,96.74
2017-09-30T00:16:45.322Z,97.14
2017-09-30T00:19:12.867Z,97.23
2017-09-30T00:21:40.397Z,97.50
2017-09-30T00:24:07.911Z,97.37
2017-09-30T00:26:35.455Z,96.71
2017-09-30T00:29:03.044Z,96.27
2017-09-30T00:31:30.595Z,96.48
2017-09-30T00:33:58.108Z,95.77
2017-09-30T00:36:25.651Z,96.22
2017-09-30T00:38:53.166Z,96.78
2017-09-30T00:41:20.683Z,97.42
2017-09-30T00:43:48.195Z,97.78
2017-09-30T00:46:15.715Z,97.82
2017-09-30T00:48:43.259Z,97.22
2017-09-30T00:51:10.795Z,97.13
2017-09-30T00:53:38.298Z,97.11
2017-09-30T00:56:05.824Z,96.79
2017-09-30T00:58:33.351Z,97.00
2017-09-30T01:01:00.883Z,96.84
2017-09-30T01:03:28.405Z,96.39
2017-09-30T01:05:55.943Z,96.75
2017-09-30T01:08:23.466Z,96.86
2017-09-30T01:10:51.028Z,97.08
2017-09-30T01:13:18.551Z,97.36
2017-09-30T01:15:46.083Z,97.56
2017-09-30T01:18:13.599Z,97.66
2017-09-30T01:20:41.127Z,96.76
2017-09-30T01:23:08.629Z,95.11
2017-09-30T01:25:36.158Z,94.59
2017-09-30T01:28:03.685Z,94.55
2017-09-30T01:30:31.206Z,94.71
2017-09-30T01:32:58.721Z,94.65
2017-09-30T01:35:26.264Z,95.60
2017-09-30T01:37:53.784Z,96.47
2017-09-30T01:40:21.319Z,96.67
2017-09-30T01:42:48.854Z,96.29
2017-09-30T01:45:16.381Z,95.12
2017-09-30T01:47:43.908Z,94.08
2017-09-30T01:50:11.448Z,93.69
2017-09-30T01:52:39.017Z,92.04
2017-09-30T01:55:06.539Z,93.98
2017-09-30T01:57:34.055Z,94.34
2017-09-30T02:00:01.567Z,94.85
2017-09-30T02:02:29.149Z,95.57
2017-09-30T02:04:56.654Z,94.47
2017-09-30T02:07:24.182Z,94.13
2017-09-30T02:09:51.703Z,94.25
2017-09-30T02:12:19.225Z,94.92
2017-09-30T02:14:46.845Z,95.76
2017-09-30T02:17:14.476Z,95.00
2017-09-30T02:19:41.997Z,94.26
2017-09-30T02:22:09.523Z,94.86
2017-09-30T02:24:37.061Z,95.12
2017-09-30T02:27:04.593Z,95.00
2017-09-30T02:29:32.110Z,95.47
2017-09-30T02:31:59.625Z,95.85
2017-09-30T02:34:27.149Z,95.87
2017-09-30T02:36:54.684Z,95.95
2017-09-30T02:39:22.198Z,95.45
2017-09-30T02:41:49.722Z,94.63
2017-09-30T02:44:17.240Z,95.78
2017-09-30T02:46:44.757Z,95.25
2017-09-30T02:49:12.272Z,95.81
2017-09-30T02:51:39.810Z,96.54
2017-09-30T02:54:07.330Z,97.16
2017-09-30T02:56:34.861Z,96.83
2017-09-30T02:59:02.397Z,95.24
2017-09-30T03:01:29.911Z,95.96
2017-09-30T03:03:57.420Z,97.00
2017-09-30T03:06:24.947Z,97.34
2017-09-30T03:08:52.486Z,97.69
2017-09-30T03:11:19.995Z,96.94
2017-09-30T03:13:47.516Z,96.05
2017-09-30T03:16:15.038Z,95.37
2017-09-30T03:18:42.580Z,96.33
2017-09-30T03:21:10.112Z,97.35
2017-09-30T03:23:37.649Z,97.83
2017-09-30T03:26:05.174Z,98.07
2017-09-30T03:28:32.707Z,98.32
2017-09-30T03:31:00.220Z,97.46
2017-09-30T03:33:27.755Z,96.88
2017-09-30T03:35:55.559Z,95.64
2017-09-30T03:38:23.074Z,96.35
2017-09-30T03:40:50.592Z,96.14
2017-09-30T03:43:18.101Z,95.89
2017-09-30T03:45:45.615Z,96.86
2017-09-30T03:48:13.131Z,97.39
2017-09-30T03:50:40.633Z,97.69
2017-09-30T03:53:08.164Z,98.01
2017-09-30T03:55:35.685Z,98.43
2017-09-30T03:58:03.216Z,98.65
2017-09-30T04:00:30.740Z,98.72
2017-09-30T04:02:58.276Z,98.39
2017-09-30T04:05:25.791Z,98.27
2017-09-30T04:07:53.324Z,98.45
2017-09-30T04:10:20.839Z,98.75
2017-09-30T04:12:48.367Z,97.88
2017-09-30T04:15:15.890Z,97.50
2017-09-30T04:17:43.404Z,96.13
2017-09-30T04:20:17.355Z,95.82
2017-09-30T04:22:44.890Z,96.63
2017-09-30T04:25:12.414Z,97.57
2017-09-30T04:27:39.974Z,96.11
2017-09-30T04:30:07.498Z,94.59
2017-09-30T04:32:35.040Z,94.46
2017-09-30T04:35:02.557Z,95.44
2017-09-30T04:37:30.082Z,95.23
2017-09-30T04:39:57.599Z,96.43
2017-09-30T04:42:25.105Z,96.65
2017-09-30T04:44:52.638Z,95.50
2017-09-30T04:47:20.153Z,94.33
2017-09-30T04:49:47.699Z,94.12
2017-09-30T04:52:15.225Z,95.41
2017-09-30T04:54:42.741Z,96.53
2017-09-30T04:57:10.254Z,95.36
2017-09-30T04:59:37.769Z,94.92
2017-09-30T05:02:05.307Z,94.67
2017-09-30T05:04:32.846Z,95.90
2017-09-30T05:07:00.374Z,96.22
2017-09-30T05:09:27.895Z,96.74
2017-09-30T05:11:55.406Z,96.75
2017-09-30T05:14:22.910Z,97.19
2017-09-30T05:16:50.441Z,98.14
2017-09-30T05:19:17.978Z,98.74
2017-09-30T05:21:45.510Z,98.31
2017-09-30T05:24:13.019Z,98.02
2017-09-30T05:26:41.508Z,96.34
2017-09-30T05:29:09.026Z,94.52
2017-09-30T05:31:36.634Z,94.42
2017-09-30T05:34:04.162Z,94.89
2017-09-30T05:36:31.683Z,96.08
2017-09-30T05:38:59.183Z,95.85
2017-09-30T05:41:26.697Z,95.47
2017-09-30T05:43:54.223Z,95.87
2017-09-30T05:46:21.757Z,96.47
2017-09-30T05:48:49.289Z,95.81
2017-09-30T05:51:16.816Z,94.08
2017-09-30T05:53:44.343Z,94.06
2017-09-30T05:56:11.965Z,94.57
2017-09-30T05:58:39.506Z,94.36
2017-09-30T06:01:07.032Z,94.69
2017-09-30T06:03:34.565Z,94.46
2017-09-30T06:06:02.078Z,94.07
2017-09-30T06:08:29.616Z,94.08
2017-09-30T06:10:57.163Z,93.28
2017-09-30T06:13:24.690Z,93.15
2017-09-30T06:15:52.203Z,92.67
2017-09-30T06:18:19.734Z,93.24
2017-09-30T06:20:47.266Z,94.62
2017-09-30T06:23:14.781Z,94.34
2017-09-30T06:25:42.306Z,94.16
2017-09-30T06:28:09.831Z,93.37
2017-09-30T06:30:37.365Z,92.96
2017-09-30T06:33:04.870Z,93.76
2017-09-30T06:35:33.912Z,90.24
2017-09-30T06:38:01.446Z,88.56
2017-09-30T06:40:29.038Z,88.67
2017-09-30T06:42:56.713Z,88.64
2017-09-30T06:45:24.244Z,88.55
2017-09-30T06:47:51.765Z,88.58
2017-09-30T06:50:19.291Z,88.88
2017-09-30T06:52:46.810Z,88.69
2017-09-30T06:55:14.320Z,90.60
2017-09-30T06:57:41.882Z,88.24
2017-09-30T07:00:09.390Z,87.56
2017-09-30T07:02:36.915Z,86.44
2017-09-30T07:05:04.434Z,86.57
2017-09-30T07:07:31.954Z,86.14
2017-09-30T07:09:59.492Z,85.24
2017-09-30T07:12:27.019Z,84.32
2017-09-30T07:14:54.550Z,85.55
2017-09-30T07:17:22.057Z,86.40
2017-09-30T07:19:49.596Z,84.97
2017-09-30T07:22:17.131Z,84.89
2017-09-30T07:24:44.659Z,85.75
2017-09-30T07:27:12.175Z,85.61
2017-09-30T07:29:39.691Z,87.00
2017-09-30T07:32:07.240Z,87.29
2017-09-30T07:34:34.762Z,87.03
2017-09-30T07:37:02.308Z,88.34
2017-09-30T07:39:29.808Z,90.44
2017-09-30T07:41:57.337Z,88.21
2017-09-30T07:44:24.856Z,83.57
2017-09-30T07:46:52.401Z,79.63
2017-09-30T07:49:19.911Z,78.13
2017-09-30T07:51:47.418Z,77.15
2017-09-30T07:54:14.946Z,75.84
2017-09-30T07:56:42.500Z,73.78
2017-09-30T07:59:10.025Z,70.89
2017-09-30T08:01:37.528Z,68.36
2017-09-30T08:04:05.088Z,70.16
2017-09-30T08:06:32.612Z,70.98
2017-09-30T08:09:00.178Z,63.41
2017-09-30T08:11:27.688Z,59.88
2017-09-30T08:13:55.213Z,60.43
2017-09-30T08:16:22.727Z,66.32
2017-09-30T08:18:50.265Z,65.79
2017-09-30T08:21:17.816Z,64.67
2017-09-30T08:23:45.336Z,65.24
2017-09-30T08:26:12.867Z,63.94
2017-09-30T08:28:40.385Z,64.30
2017-09-30T08:31:07.912Z,60.43
2017-09-30T08:33:35.434Z,61.75
2017-09-30T08:36:03.003Z,58.62
2017-09-30T08:38:30.527Z,56.21
2017-09-30T08:40:58.067Z,57.72
2017-09-30T08:43:25.592Z,54.40
2017-09-30T08:45:53.103Z,44.50
2017-09-30T08:48:20.640Z,39.33
2017-09-30T08:50:48.147Z,43.72
2017-09-30T08:53:15.669Z,48.08
2017-09-30T08:55:43.206Z,54.04
2017-09-30T08:58:10.732Z,50.40
2017-09-30T09:00:38.242Z,43.26
2017-09-30T09:03:05.758Z,38.90
2017-09-30T09:05:33.284Z,38.79
2017-09-30T09:08:00.833Z,40.64
2017-09-30T09:10:28.457Z,39.47
2017-09-30T09:12:55.994Z,43.95
2017-09-30T09:15:23.509Z,42.82
2017-09-30T09:17:51.025Z,50.44
2017-09-30T09:20:18.536Z,53.21
2017-09-30T09:22:46.071Z,57.12
2017-09-30T09:25:13.580Z,56.46
2017-09-30T09:27:41.138Z,57.28
2017-09-30T09:30:08.651Z,58.02
2017-09-30T09:32:36.171Z,57.97
2017-09-30T09:35:03.698Z,59.10
2017-09-30T09:37:31.212Z,58.29
2017-09-30T09:39:58.728Z,55.02
2017-09-30T09:42:26.232Z,54.39
2017-09-30T09:44:53.772Z,55.59
2017-09-30T09:47:21.283Z,51.30
2017-09-30T09:49:48.827Z,53.23
2017-09-30T09:52:16.323Z,53.44
2017-09-30T09:54:43.831Z,54.40
2017-09-30T09:57:11.347Z,48.17
2017-09-30T09:59:38.863Z,37.73
2017-09-30T10:02:06.503Z,40.09
2017-09-30T10:04:34.018Z,36.03
2017-09-30T10:07:01.534Z,38.83
2017-09-30T10:09:29.044Z,33.26
2017-09-30T10:11:56.562Z,30.40
2017-09-30T10:14:24.207Z,29.43
2017-09-30T10:16:51.717Z,31.74
2017-09-30T10:19:19.255Z,33.76
2017-09-30T10:21:46.794Z,32.61
2017-09-30T10:24:14.300Z,25.33
2017-09-30T10:26:41.816Z,27.41
2017-09-30T10:29:09.322Z,25.57
2017-09-30T10:31:36.841Z,24.75
2017-09-30T10:34:04.359Z,29.15
2017-09-30T10:36:31.873Z,28.06
2017-09-30T10:38:59.379Z,27.53
2017-09-30T10:41:26.892Z,31.26
2017-09-30T10:43:54.420Z,28.72
2017-09-30T10:46:21.935Z,26.04
2017-09-30T10:48:49.465Z,30.15
2017-09-30T10:51:16.984Z,29.90
2017-09-30T10:53:44.488Z,28.64
2017-09-30T10:56:11.999Z,28.90
2017-09-30T10:58:39.506Z,31.68
2017-09-30T11:01:07.091Z,32.00
2017-09-30T11:03:34.605Z,28.35
2017-09-30T11:06:02.128Z,27.40
2017-09-30T11:08:29.668Z,26.73
2017-09-30T11:10:57.199Z,25.40
2017-09-30T11:13:24.708Z,29.56
2017-09-30T11:15:52.227Z,31.87
2017-09-30T11:18:19.751Z,32.40
2017-09-30T11:20:47.256Z,34.33
2017-09-30T11:23:14.748Z,40.24
2017-09-30T11:25:42.249Z,37.46
2017-09-30T11:28:09.760Z,41.14
2017-09-30T11:30:37.279Z,35.92
2017-09-30T11:33:04.840Z,36.53
2017-09-30T11:35:32.364Z,41.71
2017-09-30T11:37:59.878Z,34.00
2017-09-30T11:40:27.417Z,30.94
2017-09-30T11:42:54.924Z,28.72
2017-09-30T11:45:22.435Z,25.88
2017-09-30T11:47:49.957Z,24.80
2017-09-30T11:50:17.495Z,24.81
2017-09-30T11:52:45.007Z,27.60
2017-09-30T11:55:12.529Z,28.99
2017-09-30T11:57:40.056Z,25.99
2017-09-30T12:00:07.572Z,25.70
2017-09-30T12:02:35.074Z,29.05
2017-09-30T12:05:02.610Z,25.47
2017-09-30T12:07:30.137Z,29.13
2017-09-30T12:09:57.663Z,27.02
2017-09-30T12:12:25.207Z,26.33
2017-09-30T12:14:52.730Z,27.04
2017-09-30T12:17:20.254Z,31.21
2017-09-30T12:19:47.776Z,25.16
2017-09-30T12:22:15.306Z,23.13
2017-09-30T12:24:42.819Z,22.65
2017-09-30T12:27:10.353Z,27.85
2017-09-30T12:29:37.877Z,27.26
2017-09-30T12:32:05.407Z,25.64
2017-09-30T12:34:32.930Z,23.96
2017-09-30T12:37:00.460Z,27.67
2017-09-30T12:39:27.984Z,28.71
2017-09-30T12:41:55.514Z,27.43
2017-09-30T12:44:23.023Z,27.34
2017-09-30T12:46:50.586Z,28.56
2017-09-30T12:49:18.112Z,29.73
2017-09-30T12:51:45.639Z,27.84
2017-09-30T12:54:13.154Z,29.48
2017-09-30T12:56:40.784Z,29.46
2017-09-30T12:59:08.305Z,28.41
2017-09-30T13:01:35.834Z,25.91
2017-09-30T13:04:03.399Z,26.53
2017-09-30T13:06:30.902Z,28.95
2017-09-30T13:08:58.410Z,26.25
2017-09-30T13:11:25.910Z,28.53
2017-09-30T13:13:53.410Z,29.01
2017-09-30T13:16:20.986Z,31.42
2017-09-30T13:18:48.515Z,29.78
2017-09-30T13:21:16.046Z,30.33
2017-09-30T13:23:43.614Z,34.70
2017-09-30T13:26:11.135Z,36.05
2017-09-30T13:28:38.699Z,35.22
2017-09-30T13:31:06.205Z,35.90
2017-09-30T13:33:33.717Z,35.41
2017-09-30T13:36:01.256Z,33.93
2017-09-30T13:38:28.771Z,36.61
2017-09-30T13:40:56.279Z,35.72
2017-09-30T13:43:23.808Z,34.58
2017-09-30T13:45:51.308Z,33.66
2017-09-30T13:48:18.904Z,33.69
2017-09-30T13:50:46.420Z,35.53
2017-09-30T13:53:14.159Z,33.51
2017-09-30T13:55:41.666Z,34.59
2017-09-30T13:58:09.201Z,39.05
2017-09-30T14:00:36.749Z,45.27
2017-09-30T14:03:04.288Z,46.17
2017-09-30T14:05:31.852Z,47.75
2017-09-30T14:07:59.379Z,49.49
2017-09-30T14:10:26.891Z,51.05
2017-09-30T14:12:54.395Z,50.72
2017-09-30T14:15:21.928Z,51.20
2017-09-30T14:17:49.448Z,52.11
2017-09-30T14:20:16.997Z,52.57
2017-09-30T14:22:44.531Z,52.55
2017-09-30T14:25:12.078Z,52.53
2017-09-30T14:27:39.615Z,53.08
2017-09-30T14:30:07.120Z,55.16
2017-09-30T14:32:34.647Z,55.31
2017-09-30T14:35:02.176Z,55.87
2017-09-30T14:37:29.704Z,55.74
2017-09-30T14:39:57.211Z,55.83
2017-09-30T14:42:24.733Z,56.39
2017-09-30T14:44:52.280Z,54.77
2017-09-30T14:47:19.898Z,56.86
2017-09-30T14:49:47.504Z,56.69
2017-09-30T14:52:15.031Z,56.07
2017-09-30T14:54:42.560Z,57.11
2017-09-30T14:57:10.082Z,58.04
2017-09-30T14:59:37.612Z,58.10
2017-09-30T15:02:05.124Z,59.60
2017-09-30T15:04:32.696Z,59.58
2017-09-30T15:07:00.226Z,61.28
2017-09-30T15:09:27.727Z,61.61
2017-09-30T15:11:55.250Z,61.51
2017-09-30T15:14:22.783Z,62.50
2017-09-30T15:16:50.287Z,62.69
2017-09-30T15:19:17.830Z,64.42
2017-09-30T15:21:45.350Z,66.78
2017-09-30T15:24:12.895Z,69.91
2017-09-30T15:26:40.416Z,73.60
2017-09-30T15:29:07.936Z,79.73
2017-09-30T15:31:35.463Z,84.29
2017-09-30T15:34:02.995Z,85.97
2017-09-30T15:36:30.651Z,85.67
2017-09-30T15:38:58.179Z,87.46
2017-09-30T15:41:25.932Z,83.89
2017-09-30T15:43:53.478Z,83.81
2017-09-30T15:46:20.999Z,84.75
2017-09-30T15:48:48.519Z,84.16
2017-09-30T15:51:16.054Z,86.14
2017-09-30T15:53:43.564Z,82.04
2017-09-30T15:56:11.089Z,82.90
2017-09-30T15:58:38.612Z,83.21
2017-09-30T16:01:06.196Z,82.66
2017-09-30T16:03:33.846Z,85.06
2017-09-30T16:06:01.471Z,85.59
2017-09-30T16:08:28.990Z,85.20
2017-09-30T16:10:56.556Z,86.33
2017-09-30T16:13:24.197Z,85.90
2017-09-30T16:15:51.709Z,85.88
2017-09-30T16:18:19.256Z,85.07
2017-09-30T16:20:46.815Z,83.32
2017-09-30T16:23:14.341Z,82.70
2017-09-30T16:25:41.867Z,83.33
2017-09-30T16:28:09.394Z,82.79
2017-09-30T16:30:36.907Z,84.09
2017-09-30T16:33:04.415Z,85.93
2017-09-30T16:35:31.947Z,85.89
2017-09-30T16:37:59.492Z,84.79
2017-09-30T16:40:27.004Z,85.84
2017-09-30T16:42:54.515Z,84.69
2017-09-30T16:45:22.023Z,85.65
2017-09-30T16:47:49.553Z,85.09
2017-09-30T16:50:17.065Z,84.41
2017-09-30T16:52:44.601Z,83.32
2017-09-30T16:55:12.117Z,84.24
2017-09-30T16:57:39.611Z,84.43
2017-09-30T17:00:07.118Z,84.54
2017-09-30T17:02:34.628Z,84.83
2017-09-30T17:05:02.137Z,84.88
2017-09-30T17:07:29.668Z,87.34
2017-09-30T17:09:57.202Z,87.17
2017-09-30T17:12:24.727Z,88.84
2017-09-30T17:14:52.255Z,86.09
2017-09-30T17:17:19.767Z,86.51
2017-09-30T17:19:47.325Z,86.64
2017-09-30T17:22:14.840Z,82.08
2017-09-30T17:24:42.358Z,83.88
2017-09-30T17:27:09.886Z,83.96
2017-09-30T17:29:37.436Z,88.61
2017-09-30T17:32:04.935Z,89.42
2017-09-30T17:34:32.446Z,89.01
2017-09-30T17:37:00.079Z,87.97
2017-09-30T17:39:27.585Z,85.37
2017-09-30T17:41:55.110Z,86.60
2017-09-30T17:44:22.744Z,85.18
2017-09-30T17:46:50.283Z,85.90
2017-09-30T17:49:17.800Z,86.34
2017-09-30T17:51:45.291Z,88.76
2017-09-30T17:54:12.880Z,89.12
2017-09-30T17:56:40.416Z,88.37
2017-09-30T17:59:07.928Z,89.21
2017-09-30T18:01:35.440Z,89.39
2017-09-30T18:04:03.055Z,88.48
2017-09-30T18:06:30.586Z,88.66
2017-09-30T18:08:58.108Z,88.28
2017-09-30T18:11:25.617Z,90.02
2017-09-30T18:13:53.139Z,92.27
2017-09-30T18:16:20.663Z,91.32
2017-09-30T18:18:48.166Z,93.55
2017-09-30T18:21:15.664Z,91.85
2017-09-30T18:23:43.192Z,91.41
2017-09-30T18:26:11.611Z,90.10
2017-09-30T18:28:39.188Z,89.88
2017-09-30T18:31:06.776Z,89.33
2017-09-30T18:33:34.350Z,91.33
2017-09-30T18:36:01.892Z,92.51
2017-09-30T18:38:29.401Z,92.14
2017-09-30T18:40:56.992Z,92.90
2017-09-30T18:43:25.208Z,93.70
2017-09-30T18:45:52.842Z,94.61
2017-09-30T18:48:20.502Z,94.40
2017-09-30T18:50:49.029Z,94.24
2017-09-30T18:53:16.707Z,94.33
2017-09-30T18:55:44.772Z,93.30
2017-09-30T18:58:12.793Z,93.77
2017-09-30T19:00:40.659Z,94.48
2017-09-30T19:03:08.315Z,94.21
2017-09-30T19:05:35.988Z,93.38
2017-09-30T19:08:03.537Z,92.70
2017-09-30T19:10:31.085Z,93.46
2017-09-30T19:12:58.631Z,93.40
2017-09-30T19:15:26.142Z,94.05
2017-09-30T19:17:53.698Z,94.33
2017-09-30T19:20:21.223Z,95.35
2017-09-30T19:22:48.782Z,95.02
2017-09-30T19:25:16.310Z,95.56
2017-09-30T19:27:43.825Z,94.78
2017-09-30T19:30:11.339Z,94.28
2017-09-30T19:32:38.865Z,93.37
2017-09-30T19:35:06.385Z,93.09
2017-09-30T19:37:33.886Z,95.00
2017-09-30T19:40:01.419Z,94.26
2017-09-30T19:42:28.915Z,92.02
2017-09-30T19:44:56.459Z,90.80
2017-09-30T19:47:24.017Z,93.47
2017-09-30T19:49:51.550Z,93.16
2017-09-30T19:52:21.150Z,93.83
2017-09-30T19:54:48.683Z,92.74
2017-09-30T19:57:16.207Z,92.42
2017-09-30T19:59:43.719Z,94.07
2017-09-30T20:02:11.261Z,94.19
2017-09-30T20:04:38.784Z,94.00
2017-09-30T20:07:06.295Z,94.66
2017-09-30T20:09:33.839Z,94.40
2017-09-30T20:12:01.376Z,94.52
2017-09-30T20:14:28.951Z,92.04
2017-09-30T20:16:56.493Z,92.92
2017-09-30T20:19:24.232Z,92.44
2017-09-30T20:21:51.789Z,93.62
2017-09-30T20:24:19.321Z,93.53
2017-09-30T20:26:47.118Z,93.63
2017-09-30T20:29:14.660Z,93.53
2017-09-30T20:31:42.282Z,94.50
2017-09-30T20:34:09.817Z,95.29
2017-09-30T20:36:37.392Z,94.49
2017-09-30T20:39:04.943Z,94.58
2017-09-30T20:41:32.476Z,94.26
2017-09-30T20:44:00.128Z,94.80
2017-09-30T20:46:27.682Z,94.79
2017-09-30T20:48:55.204Z,95.12
2017-09-30T20:51:22.723Z,95.71
2017-09-30T20:53:50.271Z,95.14
2017-09-30T20:56:17.833Z,94.49
2017-09-30T20:58:45.411Z,95.42
2017-09-30T21:01:12.923Z,94.57
2017-09-30T21:03:40.485Z,92.82
2017-09-30T21:06:08.059Z,94.70
2017-09-30T21:08:35.569Z,93.52
2017-09-30T21:11:03.102Z,93.43
2017-09-30T21:13:30.613Z,95.09
2017-09-30T21:15:58.119Z,96.12
2017-09-30T21:18:25.697Z,96.96
2017-09-30T21:20:53.347Z,96.19
2017-09-30T21:23:20.880Z,94.79
2017-09-30T21:25:48.379Z,95.22
2017-09-30T21:28:15.899Z,94.25
2017-09-30T21:30:43.416Z,95.36
2017-09-30T21:33:10.924Z,96.24
2017-09-30T21:35:38.449Z,94.79
2017-09-30T21:38:05.973Z,96.13
2017-09-30T21:40:33.663Z,96.61
2017-09-30T21:43:01.223Z,96.41
2017-09-30T21:45:28.761Z,96.68
2017-09-30T21:47:56.278Z,96.30
2017-09-30T21:50:23.787Z,96.68
2017-09-30T21:52:51.305Z,95.89
2017-09-30T21:55:18.849Z,96.24
2017-09-30T21:57:46.355Z,95.60
2017-09-30T22:00:13.880Z,95.04
2017-09-30T22:02:41.431Z,95.78
2017-09-30T22:05:08.948Z,94.51
2017-09-30T22:07:36.467Z,94.05
2017-09-30T22:10:04.013Z,94.64
2017-09-30T22:12:31.545Z,95.29
2017-09-30T22:14:59.299Z,95.09
2017-09-30T22:17:26.811Z,96.31
2017-09-30T22:19:54.339Z,96.11
2017-09-30T22:22:21.880Z,96.92
2017-09-30T22:24:49.371Z,96.00
2017-09-30T22:27:16.897Z,96.24
2017-09-30T22:29:44.420Z,96.10
2017-09-30T22:32:11.931Z,95.82
2017-09-30T22:34:39.467Z,94.57
2017-09-30T22:37:06.966Z,94.88
2017-09-30T22:39:35.399Z,96.29
2017-09-30T22:42:02.916Z,96.41
2017-09-30T22:44:30.462Z,96.26
2017-09-30T22:46:57.984Z,95.58
2017-09-30T22:49:25.500Z,93.76
2017-09-30T22:51:53.128Z,94.57
2017-09-30T22:54:20.640Z,95.10
2017-09-30T22:56:48.160Z,94.00
2017-09-30T22:59:15.672Z,93.98
2017-09-30T23:01:43.175Z,94.46
2017-09-30T23:04:10.684Z,94.27
2017-09-30T23:06:38.194Z,95.01
2017-09-30T23:09:10.267Z,95.30
2017-09-30T23:11:37.791Z,95.58
2017-09-30T23:14:05.327Z,94.93
2017-09-30T23:16:32.849Z,96.00
2017-09-30T23:19:00.391Z,93.03
2017-09-30T23:21:27.915Z,95.01
2017-09-30T23:23:55.466Z,95.10
2017-09-30T23:26:22.992Z,95.28
2017-09-30T23:28:50.512Z,96.28
2017-09-30T23:31:18.017Z,95.10
2017-09-30T23:33:45.551Z,95.09
2017-09-30T23:36:13.054Z,95.04
2017-09-30T23:38:40.572Z,95.09
2017-09-30T23:41:08.494Z,95.57
2017-09-30T23:43:36.015Z,95.90
2017-09-30T23:46:03.508Z,95.87
2017-09-30T23:48:31.206Z,96.32
2017-09-30T23:50:58.730Z,96.07
2017-09-30T23:53:26.230Z,96.15
2017-09-30T23:55:53.727Z,94.73
2017-09-30T23:58:21.249Z,94.90
